sensor_id;sensor_type;location;lat;lon;timestamp;pressure;altitude;pressure_sealevel;temperature;humidity
46886;BME280;32622;48.202;11.326;2023-04-24T00:01:46;1008.82;;;12.35;35.14
46886;BME280;32622;48.202;11.326;2023-04-24T00:03:49;1008.88;;;12.12;35.67
46886;BME280;32622;48.202;11.326;2023-04-24T00:05:53;1008.96;;;11.77;35.32
46886;BME280;32622;48.202;11.326;2023-04-24T00:07:56;1008.90;;;12.00;35.89
46886;BME280;32622;48.202;11.326;2023-04-24T00:10:00;1008.86;;;12.11;35.66
46886;BME280;32622;48.202;11.326;2023-04-24T00:12:04;1008.73;;;12.75;35.03
46886;BME280;32622;48.202;11.326;2023-04-24T00:14:07;1008.81;;;12.45;34.76
46886;BME280;32622;48.202;11.326;2023-04-24T00:16:11;1008.93;;;11.85;35.11
46886;BME280;32622;48.202;11.326;2023-04-24T00:18:14;1008.76;;;12.70;34.97
46886;BME280;32622;48.202;11.326;2023-04-24T00:20:17;1008.65;;;13.03;34.51
46886;BME280;32622;48.202;11.326;2023-04-24T00:22:21;1008.70;;;12.82;33.67
46886;BME280;32622;48.202;11.326;2023-04-24T00:24:24;1008.70;;;12.69;33.82
46886;BME280;32622;48.202;11.326;2023-04-24T00:26:28;1008.56;;;13.22;33.32
46886;BME280;32622;48.202;11.326;2023-04-24T00:28:31;1008.60;;;13.08;33.60
46886;BME280;32622;48.202;11.326;2023-04-24T00:30:35;1008.75;;;12.52;33.69
46886;BME280;32622;48.202;11.326;2023-04-24T00:32:38;1008.62;;;12.98;33.78
46886;BME280;32622;48.202;11.326;2023-04-24T00:34:42;1008.81;;;12.29;34.05
46886;BME280;32622;48.202;11.326;2023-04-24T00:36:45;1008.83;;;12.33;34.21
46886;BME280;32622;48.202;11.326;2023-04-24T00:38:48;1008.84;;;12.38;34.67
46886;BME280;32622;48.202;11.326;2023-04-24T00:40:51;1008.75;;;12.65;34.12
46886;BME280;32622;48.202;11.326;2023-04-24T00:42:55;1008.80;;;12.38;34.29
46886;BME280;32622;48.202;11.326;2023-04-24T00:44:59;1008.76;;;12.53;34.09
46886;BME280;32622;48.202;11.326;2023-04-24T00:47:04;1008.75;;;12.57;34.16
46886;BME280;32622;48.202;11.326;2023-04-24T00:49:07;1008.71;;;12.67;33.90
46886;BME280;32622;48.202;11.326;2023-04-24T00:51:11;1008.73;;;12.60;33.18
46886;BME280;32622;48.202;11.326;2023-04-24T00:53:14;1009.10;;;10.73;35.52
46886;BME280;32622;48.202;11.326;2023-04-24T00:55:18;1008.83;;;11.98;34.83
46886;BME280;32622;48.202;11.326;2023-04-24T00:57:21;1008.80;;;12.08;34.14
46886;BME280;32622;48.202;11.326;2023-04-24T00:59:25;1008.77;;;12.01;33.94
46886;BME280;32622;48.202;11.326;2023-04-24T01:01:28;1008.69;;;12.38;33.56
46886;BME280;32622;48.202;11.326;2023-04-24T01:03:32;1008.85;;;11.85;33.88
46886;BME280;32622;48.202;11.326;2023-04-24T01:05:36;1008.75;;;12.37;34.02
46886;BME280;32622;48.202;11.326;2023-04-24T01:07:41;1008.92;;;11.54;34.23
46886;BME280;32622;48.202;11.326;2023-04-24T01:09:46;1008.84;;;11.74;33.76
46886;BME280;32622;48.202;11.326;2023-04-24T01:11:50;1008.86;;;11.57;34.06
46886;BME280;32622;48.202;11.326;2023-04-24T01:13:54;1008.74;;;12.08;33.44
46886;BME280;32622;48.202;11.326;2023-04-24T01:15:58;1008.74;;;11.90;33.90
46886;BME280;32622;48.202;11.326;2023-04-24T01:18:01;1008.75;;;11.87;34.03
46886;BME280;32622;48.202;11.326;2023-04-24T01:20:05;1008.61;;;12.41;33.41
46886;BME280;32622;48.202;11.326;2023-04-24T01:22:10;1008.69;;;11.78;33.42
46886;BME280;32622;48.202;11.326;2023-04-24T01:24:14;1008.58;;;12.13;33.05
46886;BME280;32622;48.202;11.326;2023-04-24T01:26:18;1008.53;;;12.45;32.94
46886;BME280;32622;48.202;11.326;2023-04-24T01:28:21;1008.62;;;11.98;33.06
46886;BME280;32622;48.202;11.326;2023-04-24T01:30:25;1008.61;;;11.85;33.26
46886;BME280;32622;48.202;11.326;2023-04-24T01:32:28;1008.59;;;11.93;33.72
46886;BME280;32622;48.202;11.326;2023-04-24T01:34:32;1008.60;;;12.09;33.48
46886;BME280;32622;48.202;11.326;2023-04-24T01:36:36;1008.61;;;11.87;33.38
46886;BME280;32622;48.202;11.326;2023-04-24T01:38:41;1008.59;;;11.87;33.20
46886;BME280;32622;48.202;11.326;2023-04-24T01:40:44;1008.55;;;11.92;33.60
46886;BME280;32622;48.202;11.326;2023-04-24T01:42:47;1008.65;;;11.46;33.19
46886;BME280;32622;48.202;11.326;2023-04-24T01:44:51;1008.55;;;11.87;33.53
46886;BME280;32622;48.202;11.326;2023-04-24T01:46:55;1008.58;;;11.75;33.96
46886;BME280;32622;48.202;11.326;2023-04-24T01:49:00;1008.61;;;11.49;33.55
46886;BME280;32622;48.202;11.326;2023-04-24T01:51:04;1008.63;;;11.39;34.24
46886;BME280;32622;48.202;11.326;2023-04-24T01:53:07;1008.71;;;11.14;34.34
46886;BME280;32622;48.202;11.326;2023-04-24T01:55:10;1008.66;;;11.47;33.80
46886;BME280;32622;48.202;11.326;2023-04-24T01:57:14;1008.72;;;11.30;34.16
46886;BME280;32622;48.202;11.326;2023-04-24T01:59:21;1008.66;;;11.66;33.86
46886;BME280;32622;48.202;11.326;2023-04-24T02:01:25;1008.68;;;11.73;33.68
46886;BME280;32622;48.202;11.326;2023-04-24T02:03:28;1008.67;;;11.75;33.38
46886;BME280;32622;48.202;11.326;2023-04-24T02:05:32;1008.74;;;11.45;33.54
46886;BME280;32622;48.202;11.326;2023-04-24T02:07:35;1008.60;;;11.98;33.36
46886;BME280;32622;48.202;11.326;2023-04-24T02:09:39;1008.57;;;12.05;32.93
46886;BME280;32622;48.202;11.326;2023-04-24T02:11:42;1008.55;;;12.07;33.13
46886;BME280;32622;48.202;11.326;2023-04-24T02:13:45;1008.62;;;11.75;33.37
46886;BME280;32622;48.202;11.326;2023-04-24T02:15:49;1008.66;;;11.60;33.16
46886;BME280;32622;48.202;11.326;2023-04-24T02:17:52;1008.63;;;11.79;32.88
46886;BME280;32622;48.202;11.326;2023-04-24T02:19:55;1008.58;;;12.06;32.69
46886;BME280;32622;48.202;11.326;2023-04-24T02:21:59;1008.79;;;10.99;34.23
46886;BME280;32622;48.202;11.326;2023-04-24T02:24:02;1008.72;;;11.36;33.84
46886;BME280;32622;48.202;11.326;2023-04-24T02:26:06;1008.75;;;11.23;33.84
46886;BME280;32622;48.202;11.326;2023-04-24T02:28:10;1008.62;;;11.70;33.40
46886;BME280;32622;48.202;11.326;2023-04-24T02:30:13;1008.66;;;11.44;34.15
46886;BME280;32622;48.202;11.326;2023-04-24T02:32:17;1008.62;;;11.57;33.98
46886;BME280;32622;48.202;11.326;2023-04-24T02:34:20;1008.70;;;11.14;34.02
46886;BME280;32622;48.202;11.326;2023-04-24T02:36:23;1008.67;;;11.37;33.70
46886;BME280;32622;48.202;11.326;2023-04-24T02:38:27;1008.86;;;10.70;33.95
46886;BME280;32622;48.202;11.326;2023-04-24T02:40:30;1008.96;;;10.41;34.82
46886;BME280;32622;48.202;11.326;2023-04-24T02:42:35;1008.69;;;11.43;34.15
46886;BME280;32622;48.202;11.326;2023-04-24T02:44:38;1008.79;;;11.05;33.99
46886;BME280;32622;48.202;11.326;2023-04-24T02:46:41;1008.91;;;10.77;34.63
46886;BME280;32622;48.202;11.326;2023-04-24T02:48:45;1008.79;;;11.22;34.17
46886;BME280;32622;48.202;11.326;2023-04-24T02:50:48;1008.75;;;11.16;33.95
46886;BME280;32622;48.202;11.326;2023-04-24T02:52:52;1008.82;;;10.99;34.34
46886;BME280;32622;48.202;11.326;2023-04-24T02:54:55;1008.77;;;11.34;34.76
46886;BME280;32622;48.202;11.326;2023-04-24T02:56:58;1008.82;;;11.10;34.12
46886;BME280;32622;48.202;11.326;2023-04-24T02:59:02;1008.89;;;10.75;34.61
46886;BME280;32622;48.202;11.326;2023-04-24T03:01:05;1008.82;;;11.10;34.41
46886;BME280;32622;48.202;11.326;2023-04-24T03:03:08;1008.93;;;10.67;34.56
46886;BME280;32622;48.202;11.326;2023-04-24T03:05:12;1008.93;;;10.95;35.24
46886;BME280;32622;48.202;11.326;2023-04-24T03:07:15;1008.99;;;10.62;35.62
46886;BME280;32622;48.202;11.326;2023-04-24T03:09:18;1009.04;;;10.22;35.34
46886;BME280;32622;48.202;11.326;2023-04-24T03:11:22;1008.70;;;11.36;34.88
46886;BME280;32622;48.202;11.326;2023-04-24T03:13:25;1008.72;;;11.30;34.75
46886;BME280;32622;48.202;11.326;2023-04-24T03:15:29;1008.86;;;10.67;35.05
46886;BME280;32622;48.202;11.326;2023-04-24T03:17:32;1008.79;;;10.81;35.04
46886;BME280;32622;48.202;11.326;2023-04-24T03:19:36;1008.74;;;10.93;34.49
46886;BME280;32622;48.202;11.326;2023-04-24T03:21:39;1008.95;;;10.31;35.19
46886;BME280;32622;48.202;11.326;2023-04-24T03:23:43;1008.97;;;10.23;35.82
46886;BME280;32622;48.202;11.326;2023-04-24T03:25:46;1008.91;;;10.46;35.53
46886;BME280;32622;48.202;11.326;2023-04-24T03:27:50;1008.87;;;10.56;35.47
46886;BME280;32622;48.202;11.326;2023-04-24T03:29:53;1008.79;;;10.81;35.15
46886;BME280;32622;48.202;11.326;2023-04-24T03:31:57;1008.69;;;11.21;35.14
46886;BME280;32622;48.202;11.326;2023-04-24T03:34:00;1008.83;;;10.68;34.90
46886;BME280;32622;48.202;11.326;2023-04-24T03:36:04;1008.64;;;11.31;35.11
46886;BME280;32622;48.202;11.326;2023-04-24T03:38:07;1008.74;;;10.95;34.86
46886;BME280;32622;48.202;11.326;2023-04-24T03:40:11;1008.68;;;11.28;35.18
46886;BME280;32622;48.202;11.326;2023-04-24T03:42:14;1008.71;;;11.04;34.89
46886;BME280;32622;48.202;11.326;2023-04-24T03:44:17;1008.70;;;10.97;34.91
46886;BME280;32622;48.202;11.326;2023-04-24T03:46:21;1008.66;;;11.18;34.47
46886;BME280;32622;48.202;11.326;2023-04-24T03:48:24;1008.68;;;11.17;34.98
46886;BME280;32622;48.202;11.326;2023-04-24T03:50:28;1008.66;;;11.19;35.02
46886;BME280;32622;48.202;11.326;2023-04-24T03:52:31;1008.61;;;11.43;34.76
46886;BME280;32622;48.202;11.326;2023-04-24T03:54:35;1008.56;;;11.55;34.49
46886;BME280;32622;48.202;11.326;2023-04-24T03:56:38;1008.66;;;11.07;34.74
46886;BME280;32622;48.202;11.326;2023-04-24T03:58:42;1008.61;;;11.19;34.80
46886;BME280;32622;48.202;11.326;2023-04-24T04:00:45;1008.66;;;10.91;35.05
46886;BME280;32622;48.202;11.326;2023-04-24T04:02:48;1008.61;;;11.17;34.83
46886;BME280;32622;48.202;11.326;2023-04-24T04:04:52;1008.58;;;11.36;34.63
46886;BME280;32622;48.202;11.326;2023-04-24T04:06:55;1008.53;;;11.54;34.67
46886;BME280;32622;48.202;11.326;2023-04-24T04:08:58;1008.52;;;11.51;34.78
46886;BME280;32622;48.202;11.326;2023-04-24T04:11:02;1008.70;;;10.78;35.18
46886;BME280;32622;48.202;11.326;2023-04-24T04:13:05;1008.62;;;11.20;34.48
46886;BME280;32622;48.202;11.326;2023-04-24T04:15:09;1008.52;;;11.67;34.34
46886;BME280;32622;48.202;11.326;2023-04-24T04:17:13;1008.50;;;11.74;34.07
46886;BME280;32622;48.202;11.326;2023-04-24T04:19:16;1008.62;;;11.29;34.23
46886;BME280;32622;48.202;11.326;2023-04-24T04:21:19;1008.47;;;11.97;34.27
46886;BME280;32622;48.202;11.326;2023-04-24T04:23:23;1008.57;;;11.64;33.75
46886;BME280;32622;48.202;11.326;2023-04-24T04:25:26;1008.61;;;11.57;33.97
46886;BME280;32622;48.202;11.326;2023-04-24T04:27:30;1008.61;;;11.49;33.94
46886;BME280;32622;48.202;11.326;2023-04-24T04:29:34;1008.64;;;11.38;34.06
46886;BME280;32622;48.202;11.326;2023-04-24T04:31:37;1008.60;;;11.61;33.86
46886;BME280;32622;48.202;11.326;2023-04-24T04:33:40;1008.53;;;11.87;33.73
46886;BME280;32622;48.202;11.326;2023-04-24T04:35:44;1008.67;;;11.25;33.63
46886;BME280;32622;48.202;11.326;2023-04-24T04:37:47;1008.61;;;11.73;33.43
46886;BME280;32622;48.202;11.326;2023-04-24T04:39:51;1008.70;;;11.24;33.51
46886;BME280;32622;48.202;11.326;2023-04-24T04:41:55;1008.75;;;11.27;33.77
46886;BME280;32622;48.202;11.326;2023-04-24T04:43:59;1008.78;;;11.12;34.16
46886;BME280;32622;48.202;11.326;2023-04-24T04:46:12;1009.03;;;10.28;34.43
46886;BME280;32622;48.202;11.326;2023-04-24T04:48:15;1008.91;;;10.96;33.72
46886;BME280;32622;48.202;11.326;2023-04-24T04:50:18;1008.80;;;11.23;33.56
46886;BME280;32622;48.202;11.326;2023-04-24T04:52:22;1009.02;;;10.49;34.51
46886;BME280;32622;48.202;11.326;2023-04-24T04:54:25;1009.07;;;10.43;34.62
46886;BME280;32622;48.202;11.326;2023-04-24T04:56:30;1009.04;;;10.68;34.51
46886;BME280;32622;48.202;11.326;2023-04-24T04:58:33;1009.14;;;10.33;35.32
46886;BME280;32622;48.202;11.326;2023-04-24T05:00:36;1009.05;;;10.90;34.75
46886;BME280;32622;48.202;11.326;2023-04-24T05:02:40;1009.10;;;10.60;34.70
46886;BME280;32622;48.202;11.326;2023-04-24T05:04:43;1009.03;;;10.76;34.62
46886;BME280;32622;48.202;11.326;2023-04-24T05:06:47;1009.17;;;10.41;35.28
46886;BME280;32622;48.202;11.326;2023-04-24T05:08:50;1009.21;;;10.17;35.48
46886;BME280;32622;48.202;11.326;2023-04-24T05:10:54;1009.11;;;10.68;34.65
46886;BME280;32622;48.202;11.326;2023-04-24T05:12:57;1009.13;;;10.53;34.58
46886;BME280;32622;48.202;11.326;2023-04-24T05:15:00;1009.21;;;10.52;34.83
46886;BME280;32622;48.202;11.326;2023-04-24T05:17:04;1009.22;;;10.63;34.77
46886;BME280;32622;48.202;11.326;2023-04-24T05:19:07;1009.17;;;10.74;34.82
46886;BME280;32622;48.202;11.326;2023-04-24T05:21:10;1009.26;;;10.18;34.58
46886;BME280;32622;48.202;11.326;2023-04-24T05:23:14;1009.39;;;9.84;35.01
46886;BME280;32622;48.202;11.326;2023-04-24T05:25:17;1009.41;;;9.82;35.46
46886;BME280;32622;48.202;11.326;2023-04-24T05:27:29;1009.27;;;10.67;35.40
46886;BME280;32622;48.202;11.326;2023-04-24T05:29:32;1009.21;;;10.96;35.03
46886;BME280;32622;48.202;11.326;2023-04-24T05:31:36;1009.42;;;9.89;36.33
46886;BME280;32622;48.202;11.326;2023-04-24T05:33:39;1009.34;;;10.41;35.31
46886;BME280;32622;48.202;11.326;2023-04-24T05:35:42;1009.30;;;10.75;34.83
46886;BME280;32622;48.202;11.326;2023-04-24T05:37:45;1009.51;;;9.76;35.42
46886;BME280;32622;48.202;11.326;2023-04-24T05:39:48;1009.40;;;10.33;35.49
46886;BME280;32622;48.202;11.326;2023-04-24T05:41:52;1009.44;;;10.18;35.58
46886;BME280;32622;48.202;11.326;2023-04-24T05:43:55;1009.43;;;10.06;35.18
46886;BME280;32622;48.202;11.326;2023-04-24T05:45:58;1009.52;;;9.68;35.65
46886;BME280;32622;48.202;11.326;2023-04-24T05:48:02;1009.46;;;9.87;35.16
46886;BME280;32622;48.202;11.326;2023-04-24T05:50:06;1009.17;;;11.01;34.63
46886;BME280;32622;48.202;11.326;2023-04-24T05:52:10;1009.14;;;11.02;34.50
46886;BME280;32622;48.202;11.326;2023-04-24T05:54:13;1009.13;;;11.35;34.38
46886;BME280;32622;48.202;11.326;2023-04-24T05:56:16;1009.06;;;11.50;34.43
46886;BME280;32622;48.202;11.326;2023-04-24T05:58:20;1009.38;;;10.68;34.62
46886;BME280;32622;48.202;11.326;2023-04-24T06:00:24;1009.43;;;10.69;35.03
46886;BME280;32622;48.202;11.326;2023-04-24T06:02:27;1009.29;;;11.10;34.90
46886;BME280;32622;48.202;11.326;2023-04-24T06:04:31;1009.30;;;10.83;34.51
46886;BME280;32622;48.202;11.326;2023-04-24T06:06:35;1009.20;;;11.24;34.48
46886;BME280;32622;48.202;11.326;2023-04-24T06:08:39;1009.15;;;11.46;34.09
46886;BME280;32622;48.202;11.326;2023-04-24T06:10:42;1009.49;;;10.48;35.04
46886;BME280;32622;48.202;11.326;2023-04-24T06:12:45;1009.72;;;9.34;35.84
46886;BME280;32622;48.202;11.326;2023-04-24T06:14:48;1009.59;;;10.26;35.25
46886;BME280;32622;48.202;11.326;2023-04-24T06:16:52;1009.66;;;9.85;35.81
46886;BME280;32622;48.202;11.326;2023-04-24T06:18:55;1009.71;;;9.65;35.63
46886;BME280;32622;48.202;11.326;2023-04-24T06:20:58;1009.57;;;10.46;35.88
46886;BME280;32622;48.202;11.326;2023-04-24T06:23:02;1009.77;;;9.58;37.05
46886;BME280;32622;48.202;11.326;2023-04-24T06:25:06;1009.57;;;10.64;35.84
46886;BME280;32622;48.202;11.326;2023-04-24T06:27:10;1009.69;;;10.14;35.43
46886;BME280;32622;48.202;11.326;2023-04-24T06:29:13;1009.77;;;9.99;36.16
46886;BME280;32622;48.202;11.326;2023-04-24T06:31:16;1009.72;;;10.01;35.85
46886;BME280;32622;48.202;11.326;2023-04-24T06:33:20;1009.71;;;10.25;35.62
46886;BME280;32622;48.202;11.326;2023-04-24T06:35:23;1009.67;;;10.58;35.01
46886;BME280;32622;48.202;11.326;2023-04-24T06:37:27;1009.69;;;10.29;35.96
46886;BME280;32622;48.202;11.326;2023-04-24T06:39:30;1009.69;;;10.27;35.40
46886;BME280;32622;48.202;11.326;2023-04-24T06:41:33;1009.73;;;10.36;34.93
46886;BME280;32622;48.202;11.326;2023-04-24T06:43:37;1009.75;;;10.44;35.02
46886;BME280;32622;48.202;11.326;2023-04-24T06:45:40;1009.67;;;10.77;34.66
46886;BME280;32622;48.202;11.326;2023-04-24T06:47:43;1009.55;;;11.07;34.62
46886;BME280;32622;48.202;11.326;2023-04-24T06:49:46;1009.52;;;11.10;34.01
46886;BME280;32622;48.202;11.326;2023-04-24T06:51:49;1009.60;;;10.88;34.24
46886;BME280;32622;48.202;11.326;2023-04-24T06:53:52;1009.66;;;10.94;34.10
46886;BME280;32622;48.202;11.326;2023-04-24T06:55:56;1009.99;;;9.66;35.36
46886;BME280;32622;48.202;11.326;2023-04-24T06:58:00;1009.89;;;10.12;35.65
46886;BME280;32622;48.202;11.326;2023-04-24T07:00:04;1009.89;;;10.39;34.99
46886;BME280;32622;48.202;11.326;2023-04-24T07:02:08;1009.89;;;10.42;35.07
46886;BME280;32622;48.202;11.326;2023-04-24T07:04:11;1009.63;;;11.37;33.98
46886;BME280;32622;48.202;11.326;2023-04-24T07:06:15;1009.53;;;11.74;33.85
46886;BME280;32622;48.202;11.326;2023-04-24T07:08:18;1009.46;;;11.96;33.10
46886;BME280;32622;48.202;11.326;2023-04-24T07:10:21;1009.40;;;12.23;32.80
46886;BME280;32622;48.202;11.326;2023-04-24T07:12:25;1009.57;;;11.57;32.99
46886;BME280;32622;48.202;11.326;2023-04-24T07:14:29;1009.71;;;11.06;33.68
46886;BME280;32622;48.202;11.326;2023-04-24T07:16:32;1009.46;;;12.09;33.10
46886;BME280;32622;48.202;11.326;2023-04-24T07:18:36;1009.38;;;12.49;32.47
46886;BME280;32622;48.202;11.326;2023-04-24T07:20:39;1009.61;;;11.57;32.85
46886;BME280;32622;48.202;11.326;2023-04-24T07:22:43;1009.72;;;11.30;33.64
46886;BME280;32622;48.202;11.326;2023-04-24T07:24:47;1010.00;;;10.33;34.35
46886;BME280;32622;48.202;11.326;2023-04-24T07:26:52;1009.94;;;10.66;34.02
46886;BME280;32622;48.202;11.326;2023-04-24T07:29:04;1010.04;;;10.27;34.84
46886;BME280;32622;48.202;11.326;2023-04-24T07:31:52;1009.86;;;11.27;35.28
46886;BME280;32622;48.202;11.326;2023-04-24T07:33:56;1010.07;;;10.43;35.61
46886;BME280;32622;48.202;11.326;2023-04-24T07:36:21;1009.68;;;12.09;35.15
46886;BME280;32622;48.202;11.326;2023-04-24T07:38:24;1010.20;;;9.88;35.73
46886;BME280;32622;48.202;11.326;2023-04-24T07:40:28;1010.02;;;10.69;34.82
46886;BME280;32622;48.202;11.326;2023-04-24T07:42:31;1010.20;;;9.87;35.42
46886;BME280;32622;48.202;11.326;2023-04-24T07:44:34;1010.09;;;10.50;35.36
46886;BME280;32622;48.202;11.326;2023-04-24T07:46:38;1010.19;;;10.23;35.09
46886;BME280;32622;48.202;11.326;2023-04-24T07:48:41;1010.13;;;10.25;35.00
46886;BME280;32622;48.202;11.326;2023-04-24T07:50:45;1010.07;;;10.65;35.03
46886;BME280;32622;48.202;11.326;2023-04-24T07:52:48;1010.33;;;9.65;35.56
46886;BME280;32622;48.202;11.326;2023-04-24T07:54:57;1010.14;;;10.50;35.84
46886;BME280;32622;48.202;11.326;2023-04-24T07:57:00;1010.16;;;10.51;34.65
46886;BME280;32622;48.202;11.326;2023-04-24T07:59:04;1010.28;;;10.33;34.28
46886;BME280;32622;48.202;11.326;2023-04-24T08:01:07;1010.30;;;9.88;35.20
46886;BME280;32622;48.202;11.326;2023-04-24T08:03:11;1010.28;;;9.93;34.97
46886;BME280;32622;48.202;11.326;2023-04-24T08:05:15;1010.08;;;11.26;34.20
46886;BME280;32622;48.202;11.326;2023-04-24T08:07:18;1010.10;;;11.11;33.83
46886;BME280;32622;48.202;11.326;2023-04-24T08:09:21;1010.60;;;9.25;35.70
46886;BME280;32622;48.202;11.326;2023-04-24T08:11:25;1010.51;;;9.87;36.08
46886;BME280;32622;48.202;11.326;2023-04-24T08:13:29;1010.50;;;9.88;36.19
46886;BME280;32622;48.202;11.326;2023-04-24T08:15:33;1010.64;;;9.76;36.37
46886;BME280;32622;48.202;11.326;2023-04-24T08:17:37;1010.97;;;8.55;38.66
46886;BME280;32622;48.202;11.326;2023-04-24T08:19:40;1010.79;;;9.68;37.76
46886;BME280;32622;48.202;11.326;2023-04-24T08:21:44;1010.76;;;9.84;36.66
46886;BME280;32622;48.202;11.326;2023-04-24T08:23:47;1010.89;;;9.29;36.28
46886;BME280;32622;48.202;11.326;2023-04-24T08:25:50;1010.87;;;9.43;35.62
46886;BME280;32622;48.202;11.326;2023-04-24T08:27:54;1010.79;;;10.01;35.63
46886;BME280;32622;48.202;11.326;2023-04-24T08:29:58;1010.97;;;9.29;35.20
46886;BME280;32622;48.202;11.326;2023-04-24T08:32:01;1010.96;;;9.45;34.20
46886;BME280;32622;48.202;11.326;2023-04-24T08:34:04;1011.06;;;9.27;33.51
46886;BME280;32622;48.202;11.326;2023-04-24T08:36:08;1010.90;;;9.78;32.94
46886;BME280;32622;48.202;11.326;2023-04-24T08:38:11;1010.85;;;10.14;32.31
46886;BME280;32622;48.202;11.326;2023-04-24T08:40:16;1010.83;;;10.28;32.32
46886;BME280;32622;48.202;11.326;2023-04-24T08:42:20;1010.99;;;9.37;32.34
46886;BME280;32622;48.202;11.326;2023-04-24T08:44:23;1011.24;;;8.91;33.57
46886;BME280;32622;48.202;11.326;2023-04-24T08:46:27;1010.99;;;9.86;32.37
46886;BME280;32622;48.202;11.326;2023-04-24T08:48:33;1011.07;;;9.67;32.43
46886;BME280;32622;48.202;11.326;2023-04-24T08:50:36;1011.15;;;9.63;32.64
46886;BME280;32622;48.202;11.326;2023-04-24T08:52:40;1011.03;;;9.53;32.97
46886;BME280;32622;48.202;11.326;2023-04-24T08:54:46;1010.91;;;10.28;32.50
46886;BME280;32622;48.202;11.326;2023-04-24T08:56:51;1010.93;;;10.17;32.06
46886;BME280;32622;48.202;11.326;2023-04-24T08:58:56;1010.97;;;9.96;32.28
46886;BME280;32622;48.202;11.326;2023-04-24T09:01:00;1010.80;;;10.96;31.55
46886;BME280;32622;48.202;11.326;2023-04-24T09:03:06;1010.71;;;11.30;31.54
46886;BME280;32622;48.202;11.326;2023-04-24T09:05:10;1011.06;;;9.69;31.64
46886;BME280;32622;48.202;11.326;2023-04-24T09:07:14;1010.84;;;11.08;30.58
46886;BME280;32622;48.202;11.326;2023-04-24T09:09:19;1010.89;;;10.87;31.10
46886;BME280;32622;48.202;11.326;2023-04-24T09:11:24;1011.07;;;10.11;31.82
46886;BME280;32622;48.202;11.326;2023-04-24T09:13:28;1011.10;;;10.10;31.66
46886;BME280;32622;48.202;11.326;2023-04-24T09:15:33;1011.20;;;9.48;31.71
46886;BME280;32622;48.202;11.326;2023-04-24T09:17:36;1010.89;;;10.86;30.68
46886;BME280;32622;48.202;11.326;2023-04-24T09:19:40;1010.90;;;10.47;30.89
46886;BME280;32622;48.202;11.326;2023-04-24T09:21:46;1010.66;;;11.56;30.59
46886;BME280;32622;48.202;11.326;2023-04-24T09:23:58;1010.72;;;11.28;31.14
46886;BME280;32622;48.202;11.326;2023-04-24T09:26:04;1010.83;;;10.78;30.64
46886;BME280;32622;48.202;11.326;2023-04-24T09:28:07;1010.90;;;10.45;31.15
46886;BME280;32622;48.202;11.326;2023-04-24T09:30:11;1010.79;;;10.88;31.38
46886;BME280;32622;48.202;11.326;2023-04-24T09:32:23;1010.90;;;10.87;31.10
46886;BME280;32622;48.202;11.326;2023-04-24T09:34:27;1010.75;;;11.41;29.78
46886;BME280;32622;48.202;11.326;2023-04-24T09:36:32;1010.78;;;11.40;29.56
46886;BME280;32622;48.202;11.326;2023-04-24T09:38:37;1010.82;;;11.41;30.03
46886;BME280;32622;48.202;11.326;2023-04-24T09:40:41;1010.61;;;12.07;29.71
46886;BME280;32622;48.202;11.326;2023-04-24T09:42:46;1010.42;;;12.19;29.43
46886;BME280;32622;48.202;11.326;2023-04-24T09:44:49;1010.55;;;11.95;29.05
46886;BME280;32622;48.202;11.326;2023-04-24T09:46:54;1010.57;;;11.83;29.25
46886;BME280;32622;48.202;11.326;2023-04-24T09:48:56;1010.76;;;11.32;29.90
46886;BME280;32622;48.202;11.326;2023-04-24T09:51:00;1010.42;;;12.31;29.17
46886;BME280;32622;48.202;11.326;2023-04-24T09:53:05;1010.41;;;12.37;29.15
46886;BME280;32622;48.202;11.326;2023-04-24T09:55:12;1010.37;;;12.38;28.82
46886;BME280;32622;48.202;11.326;2023-04-24T09:57:14;1010.51;;;12.06;29.27
46886;BME280;32622;48.202;11.326;2023-04-24T09:59:19;1010.40;;;12.47;28.59
46886;BME280;32622;48.202;11.326;2023-04-24T10:01:30;1010.53;;;11.91;28.94
46886;BME280;32622;48.202;11.326;2023-04-24T10:03:33;1010.52;;;12.05;29.74
46886;BME280;32622;48.202;11.326;2023-04-24T10:05:37;1010.30;;;12.61;29.04
46886;BME280;32622;48.202;11.326;2023-04-24T10:07:40;1010.27;;;12.92;29.10
46886;BME280;32622;48.202;11.326;2023-04-24T10:09:42;1010.23;;;12.67;28.70
46886;BME280;32622;48.202;11.326;2023-04-24T10:11:46;1010.58;;;11.23;30.16
46886;BME280;32622;48.202;11.326;2023-04-24T10:13:49;1010.30;;;12.16;29.83
46886;BME280;32622;48.202;11.326;2023-04-24T10:15:53;1010.74;;;10.40;31.27
46886;BME280;32622;48.202;11.326;2023-04-24T10:17:59;1010.26;;;12.33;30.18
46886;BME280;32622;48.202;11.326;2023-04-24T10:20:02;1010.09;;;12.82;30.13
46886;BME280;32622;48.202;11.326;2023-04-24T10:22:05;1010.28;;;12.08;29.74
46886;BME280;32622;48.202;11.326;2023-04-24T10:24:08;1010.09;;;12.88;28.70
46886;BME280;32622;48.202;11.326;2023-04-24T10:26:12;1010.17;;;12.88;28.71
46886;BME280;32622;48.202;11.326;2023-04-24T10:28:16;1010.26;;;12.68;28.49
46886;BME280;32622;48.202;11.326;2023-04-24T10:30:20;1010.52;;;12.34;30.03
46886;BME280;32622;48.202;11.326;2023-04-24T10:32:22;1011.01;;;10.72;32.84
46886;BME280;32622;48.202;11.326;2023-04-24T10:34:25;1011.65;;;9.61;35.17
46886;BME280;32622;48.202;11.326;2023-04-24T10:36:29;1011.72;;;9.27;35.37
46886;BME280;32622;48.202;11.326;2023-04-24T10:38:32;1011.74;;;9.33;36.52
46886;BME280;32622;48.202;11.326;2023-04-24T10:40:36;1011.50;;;10.26;36.28
46886;BME280;32622;48.202;11.326;2023-04-24T10:42:40;1011.43;;;10.14;35.53
46886;BME280;32622;48.202;11.326;2023-04-24T10:44:43;1011.44;;;10.18;34.96
46886;BME280;32622;48.202;11.326;2023-04-24T10:46:55;1011.43;;;9.97;35.15
46886;BME280;32622;48.202;11.326;2023-04-24T10:48:58;1011.17;;;10.90;35.43
46886;BME280;32622;48.202;11.326;2023-04-24T10:51:01;1011.37;;;9.84;35.46
46886;BME280;32622;48.202;11.326;2023-04-24T10:53:07;1011.37;;;9.69;35.86
46886;BME280;32622;48.202;11.326;2023-04-24T10:55:10;1011.07;;;10.93;34.57
46886;BME280;32622;48.202;11.326;2023-04-24T10:57:30;1011.12;;;10.27;34.21
46886;BME280;32622;48.202;11.326;2023-04-24T10:59:36;1010.97;;;11.34;35.08